Time;durP1;ratioP1;P1;durP2;ratioP2;P2;SDS_P1;SDS_P2;PMS_P1;PMS_P2;Temp;Humidity;BMP_temperature;BMP_pressure;BME280_temperature;BME280_humidity;BME280_pressure;Samples;Min_cycle;Max_cycle;Signal;HPM_P1;HPM_P2
2021/03/10 00:01:34;;;;;;;42.47;18.43;;;5.30;85.70;;;;;;5042296;28;20193;-70
2021/03/10 00:03:59;;;;;;;38.80;18.20;;;5.40;85.70;;;;;;5044877;28;20683;-70
2021/03/10 00:06:25;;;;;;;40.47;17.37;;;5.30;85.60;;;;;;5043706;28;20192;-70
2021/03/10 00:08:51;;;;;;;36.27;17.30;;;5.30;85.50;;;;;;5041723;28;20184;-71
2021/03/10 00:11:16;;;;;;;38.40;17.37;;;5.30;85.60;;;;;;5039472;28;20329;-70
2021/03/10 00:13:42;;;;;;;40.80;17.63;;;5.30;85.90;;;;;;5042524;28;20217;-70
2021/03/10 00:16:08;;;;;;;36.60;18.40;;;5.30;85.70;;;;;;5042575;28;20192;-70
2021/03/10 00:18:33;;;;;;;38.73;18.33;;;5.30;85.50;;;;;;5028424;28;20815;-71
2021/03/10 00:20:59;;;;;;;46.20;19.57;;;5.30;85.70;;;;;;5031986;28;20679;-70
2021/03/10 00:23:25;;;;;;;41.07;19.30;;;5.20;85.70;;;;;;5040727;28;20217;-70
2021/03/10 00:25:50;;;;;;;39.03;17.77;;;5.20;86.00;;;;;;5043007;28;20550;-71
2021/03/10 00:28:16;;;;;;;42.23;19.20;;;5.20;86.20;;;;;;5040528;28;20230;-70
2021/03/10 00:30:42;;;;;;;43.60;19.13;;;5.10;86.80;;;;;;5032814;28;20207;-71
2021/03/10 00:33:08;;;;;;;41.50;17.53;;;5.20;86.90;;;;;;5051730;28;20919;-70
2021/03/10 00:35:33;;;;;;;48.23;18.83;;;5.20;87.30;;;;;;5052380;28;20222;-72
2021/03/10 00:38:00;;;;;;;44.77;19.07;;;5.10;87.60;;;;;;5054083;28;20242;-71
2021/03/10 00:40:27;;;;;;;37.57;17.97;;;5.10;87.70;;;;;;5052784;28;20203;-69
2021/03/10 00:42:52;;;;;;;43.50;19.33;;;5.10;88.00;;;;;;5037615;28;20472;-72
2021/03/10 00:45:18;;;;;;;45.27;19.47;;;5.00;88.40;;;;;;5027485;28;20502;-71
2021/03/10 00:47:44;;;;;;;46.67;20.10;;;5.10;88.70;;;;;;5044498;28;20443;-71
2021/03/10 00:50:11;;;;;;;42.33;20.17;;;5.00;88.90;;;;;;5042203;28;20841;-69
2021/03/10 00:52:36;;;;;;;42.90;20.30;;;4.90;89.30;;;;;;5044843;28;20255;-70
2021/03/10 00:55:03;;;;;;;50.53;20.93;;;4.90;89.60;;;;;;5044089;28;20840;-69
2021/03/10 00:57:28;;;;;;;47.43;20.40;;;4.90;90.10;;;;;;5028765;28;20189;-70
2021/03/10 00:59:54;;;;;;;48.70;21.67;;;4.90;90.30;;;;;;5045045;28;20430;-69
2021/03/10 01:02:20;;;;;;;54.40;20.97;;;5.00;90.40;;;;;;5040866;28;20282;-69
2021/03/10 01:04:45;;;;;;;51.63;22.50;;;4.90;90.30;;;;;;5037216;28;20271;-69
2021/03/10 01:07:11;;;;;;;56.27;21.43;;;5.00;90.30;;;;;;5044368;28;20676;-72
2021/03/10 01:09:37;;;;;;;52.33;21.37;;;4.90;90.30;;;;;;5046805;28;20188;-71
2021/03/10 01:12:03;;;;;;;48.60;20.20;;;5.00;90.40;;;;;;5041418;28;20204;-69
2021/03/10 01:14:28;;;;;;;51.27;22.23;;;5.00;90.40;;;;;;5039228;28;20204;-71
2021/03/10 01:16:54;;;;;;;47.77;20.43;;;5.00;90.50;;;;;;5044610;28;20427;-71
2021/03/10 01:19:20;;;;;;;52.47;21.33;;;5.00;90.50;;;;;;5045178;28;20188;-68
2021/03/10 01:21:46;;;;;;;52.20;21.57;;;5.00;90.60;;;;;;5040675;28;20220;-68
2021/03/10 01:24:11;;;;;;;48.47;20.37;;;5.00;90.50;;;;;;5036921;28;20217;-70
2021/03/10 01:26:37;;;;;;;48.03;21.03;;;5.00;90.40;;;;;;5051970;28;20184;-73
2021/03/10 01:29:03;;;;;;;48.70;20.13;;;5.00;90.50;;;;;;5038580;28;20428;-69
2021/03/10 01:31:29;;;;;;;46.87;19.87;;;5.00;90.60;;;;;;5043674;28;20252;-69
2021/03/10 01:33:54;;;;;;;41.10;18.93;;;5.00;90.50;;;;;;5032224;28;20219;-70
2021/03/10 01:36:20;;;;;;;40.57;18.03;;;5.00;90.60;;;;;;5038396;28;20193;-72
2021/03/10 01:38:46;;;;;;;48.87;20.00;;;5.10;90.40;;;;;;5051098;28;20687;-71
2021/03/10 01:41:13;;;;;;;46.60;20.77;;;5.10;90.40;;;;;;5033028;28;20185;-72
2021/03/10 01:43:39;;;;;;;47.87;20.33;;;5.00;90.40;;;;;;5018752;28;20574;-70
2021/03/10 01:46:05;;;;;;;52.90;20.30;;;4.90;90.50;;;;;;5038796;28;20441;-69
2021/03/10 01:48:31;;;;;;;43.63;21.13;;;4.90;90.70;;;;;;5035994;28;20439;-70
2021/03/10 01:50:57;;;;;;;50.83;20.43;;;5.00;90.70;;;;;;5034821;28;20427;-69
2021/03/10 01:53:23;;;;;;;45.33;20.97;;;4.90;90.70;;;;;;5053917;28;20438;-72
2021/03/10 01:55:51;;;;;;;49.60;21.83;;;4.90;90.60;;;;;;5052423;28;20184;-71
2021/03/10 01:58:18;;;;;;;54.50;21.30;;;4.90;90.70;;;;;;5032941;28;20186;-69
2021/03/10 02:00:43;;;;;;;57.93;24.20;;;4.90;90.60;;;;;;5040207;28;20434;-70
2021/03/10 02:03:10;;;;;;;42.03;20.03;;;4.80;90.80;;;;;;5050842;28;20439;-68
2021/03/10 02:05:36;;;;;;;52.13;21.77;;;4.80;90.90;;;;;;5041719;28;20279;-69
2021/03/10 02:08:28;;;;;;;53.63;22.70;;;4.80;91.00;;;;;;5044842;28;20425;-68
2021/03/10 02:11:32;;;;;;;56.00;23.27;;;4.90;90.90;;;;;;5030260;28;20463;-70
2021/03/10 02:14:42;;;;;;;55.57;23.53;;;4.80;91.00;;;;;;4979439;28;20470;-70
2021/03/10 02:17:13;;;;;;;53.87;23.33;;;4.70;91.20;;;;;;4955224;28;20438;-72
2021/03/10 02:20:05;;;;;;;53.73;22.80;;;4.80;91.30;;;;;;4969959;28;20430;-69
2021/03/10 02:23:03;;;;;;;53.17;22.80;;;4.80;91.20;;;;;;4966378;28;20454;-69
2021/03/10 02:25:56;;;;;;;57.53;23.77;;;4.80;91.10;;;;;;4968980;28;20478;-69
2021/03/10 02:28:22;;;;;;;58.00;22.87;;;4.80;91.20;;;;;;4962562;28;21015;-72
2021/03/10 02:30:51;;;;;;;61.10;23.13;;;4.80;91.00;;;;;;4974420;28;20438;-71
2021/03/10 02:33:18;;;;;;;52.40;22.10;;;4.80;91.10;;;;;;4954916;28;20219;-69
2021/03/10 02:35:50;;;;;;;52.73;23.93;;;4.90;90.90;;;;;;4967658;28;20503;-70
2021/03/10 02:38:20;;;;;;;59.17;24.20;;;4.90;90.90;;;;;;4971068;28;20431;-69
2021/03/10 02:40:48;;;;;;;52.93;22.10;;;4.90;90.80;;;;;;4968759;28;20490;-70
2021/03/10 02:43:14;;;;;;;59.17;22.20;;;4.90;90.80;;;;;;4968546;28;20454;-68
2021/03/10 02:45:41;;;;;;;55.47;22.40;;;4.90;90.60;;;;;;4980589;28;20989;-71
2021/03/10 02:48:08;;;;;;;60.80;23.77;;;4.80;90.90;;;;;;5004294;28;20420;-72
2021/03/10 02:50:35;;;;;;;53.57;21.63;;;4.90;91.10;;;;;;5039074;28;20534;-71
2021/03/10 02:53:04;;;;;;;59.03;23.40;;;4.90;90.90;;;;;;5042367;28;20443;-69
2021/03/10 02:55:32;;;;;;;52.70;22.60;;;5.00;90.80;;;;;;5036359;28;20451;-71
2021/03/10 02:57:58;;;;;;;56.53;22.13;;;5.00;90.70;;;;;;5034623;28;20463;-71
2021/03/10 03:00:25;;;;;;;49.50;22.57;;;5.00;90.70;;;;;;5044219;28;20440;-70
2021/03/10 03:02:51;;;;;;;57.97;25.47;;;5.00;90.50;;;;;;5043322;28;20451;-69
2021/03/10 03:05:17;;;;;;;59.03;22.03;;;5.00;90.50;;;;;;5030030;28;20859;-71
2021/03/10 03:07:44;;;;;;;52.03;23.37;;;5.00;90.50;;;;;;5043295;28;20518;-70
2021/03/10 03:10:36;;;;;;;54.77;22.40;;;5.00;90.50;;;;;;5037201;28;20419;-69
2021/03/10 03:13:02;;;;;;;51.67;22.90;;;4.90;90.60;;;;;;5034874;28;20463;-72
2021/03/10 03:15:29;;;;;;;56.90;22.20;;;4.90;90.60;;;;;;5040455;28;20917;-69
2021/03/10 03:17:56;;;;;;;55.90;22.77;;;4.90;90.60;;;;;;5049293;28;20507;-70
2021/03/10 03:20:24;;;;;;;59.17;21.93;;;4.80;90.70;;;;;;5054148;28;20513;-71
2021/03/10 03:22:55;;;;;;;57.80;22.80;;;4.70;91.00;;;;;;5055209;28;20465;-72
2021/03/10 03:25:24;;;;;;;47.10;21.63;;;4.80;91.20;;;;;;5043724;28;20483;-71
2021/03/10 03:28:00;;;;;;;55.43;21.73;;;4.80;91.20;;;;;;5058014;28;20439;-72
2021/03/10 03:30:31;;;;;;;56.80;24.80;;;4.80;91.10;;;;;;5046045;28;20427;-72
2021/03/10 03:32:59;;;;;;;52.00;23.47;;;4.80;91.10;;;;;;5039972;28;20450;-71
2021/03/10 03:35:25;;;;;;;52.40;22.57;;;4.80;91.10;;;;;;5039266;28;20586;-71
2021/03/10 03:37:52;;;;;;;59.53;23.30;;;4.70;91.20;;;;;;5034918;28;20427;-70
2021/03/10 03:40:21;;;;;;;54.30;23.57;;;4.80;91.30;;;;;;5047684;28;20450;-69
2021/03/10 03:42:47;;;;;;;53.77;21.60;;;4.80;91.30;;;;;;5038136;28;20472;-69
2021/03/10 03:45:17;;;;;;;62.57;22.90;;;4.80;91.20;;;;;;5023144;28;20459;-69
2021/03/10 03:47:47;;;;;;;56.10;23.50;;;4.80;91.20;;;;;;5042298;28;20431;-68
2021/03/10 03:50:13;;;;;;;63.37;25.40;;;4.80;91.30;;;;;;5039375;28;20454;-69
2021/03/10 03:52:43;;;;;;;61.10;24.20;;;4.80;91.30;;;;;;5037774;28;20442;-70
2021/03/10 03:55:09;;;;;;;55.03;24.57;;;4.80;91.30;;;;;;5034954;28;20438;-70
2021/03/10 03:57:36;;;;;;;57.30;25.13;;;4.70;91.30;;;;;;5045845;28;20473;-69
2021/03/10 04:00:04;;;;;;;51.57;23.23;;;4.70;91.60;;;;;;5035510;28;20427;-69
2021/03/10 04:02:30;;;;;;;55.77;23.10;;;4.80;91.70;;;;;;5039724;28;20475;-69
2021/03/10 04:04:56;;;;;;;51.47;22.80;;;4.90;91.30;;;;;;5042006;28;21017;-69
2021/03/10 04:07:22;;;;;;;53.53;23.07;;;4.80;91.00;;;;;;5034886;28;20206;-70
2021/03/10 04:09:47;;;;;;;56.27;24.10;;;4.90;91.10;;;;;;5032332;28;20208;-69
2021/03/10 04:12:13;;;;;;;61.83;25.10;;;4.80;91.00;;;;;;5039627;28;20212;-71
2021/03/10 04:14:39;;;;;;;60.90;23.30;;;4.80;91.20;;;;;;5035607;28;20279;-70
2021/03/10 04:17:04;;;;;;;56.37;23.37;;;4.80;91.30;;;;;;5038988;28;20197;-70
2021/03/10 04:19:30;;;;;;;55.23;24.27;;;4.80;91.20;;;;;;5042577;28;20271;-71
2021/03/10 04:21:56;;;;;;;70.83;25.97;;;4.80;91.10;;;;;;5040989;28;20192;-71
2021/03/10 04:24:22;;;;;;;64.33;26.90;;;4.80;91.10;;;;;;5036642;28;20220;-72
2021/03/10 04:26:48;;;;;;;59.53;24.67;;;4.80;91.20;;;;;;5041192;28;20193;-70
2021/03/10 04:29:13;;;;;;;63.17;25.90;;;4.80;91.50;;;;;;5044555;28;20196;-71
2021/03/10 04:31:39;;;;;;;57.00;24.90;;;4.80;91.50;;;;;;5041881;28;20431;-70
2021/03/10 04:34:05;;;;;;;58.47;25.00;;;4.80;91.50;;;;;;5035702;28;20448;-70
2021/03/10 04:36:30;;;;;;;62.57;24.00;;;4.80;91.20;;;;;;5045217;28;20267;-68
2021/03/10 04:38:56;;;;;;;54.17;23.37;;;4.80;91.50;;;;;;5040967;28;20184;-69
2021/03/10 04:41:22;;;;;;;63.00;27.33;;;4.80;91.30;;;;;;5043657;28;20193;-68
2021/03/10 04:43:48;;;;;;;64.73;23.20;;;4.80;91.20;;;;;;5021334;28;20269;-71
2021/03/10 04:46:13;;;;;;;66.40;26.33;;;4.80;91.20;;;;;;5041269;28;20238;-70
2021/03/10 04:48:39;;;;;;;65.57;25.70;;;4.80;91.10;;;;;;5053037;28;20574;-70
2021/03/10 04:51:05;;;;;;;57.57;25.83;;;4.80;91.20;;;;;;5041865;28;20247;-70
2021/03/10 04:53:31;;;;;;;65.67;26.47;;;4.80;91.20;;;;;;5032366;28;20215;-71
2021/03/10 04:55:57;;;;;;;61.00;24.73;;;4.90;91.10;;;;;;5034233;28;20191;-70
2021/03/10 04:58:22;;;;;;;65.27;26.40;;;4.90;91.10;;;;;;5033030;28;20519;-71
2021/03/10 05:00:48;;;;;;;62.57;25.97;;;4.90;90.90;;;;;;5046727;28;20653;-69
2021/03/10 05:03:14;;;;;;;64.80;25.57;;;4.80;90.90;;;;;;5047702;28;20204;-72
2021/03/10 05:05:39;;;;;;;55.97;24.67;;;4.80;91.10;;;;;;5040871;28;20315;-69
2021/03/10 05:08:05;;;;;;;63.10;25.90;;;4.90;91.00;;;;;;5041496;28;20200;-70
2021/03/10 05:10:31;;;;;;;68.40;27.67;;;4.90;91.00;;;;;;5045158;28;20223;-69
2021/03/10 05:12:57;;;;;;;59.10;24.30;;;4.90;90.90;;;;;;5033732;28;20451;-72
2021/03/10 05:15:23;;;;;;;61.40;24.60;;;4.80;90.90;;;;;;5042062;28;20189;-71
2021/03/10 05:17:48;;;;;;;63.83;25.57;;;4.70;91.00;;;;;;5039268;28;20204;-68
2021/03/10 05:20:14;;;;;;;58.67;24.87;;;4.80;91.20;;;;;;5043559;28;20423;-69
2021/03/10 05:22:40;;;;;;;70.10;25.10;;;4.70;91.20;;;;;;5048094;28;20628;-70
2021/03/10 05:25:08;;;;;;;57.63;25.40;;;4.70;91.50;;;;;;5042861;28;20213;-68
2021/03/10 05:27:35;;;;;;;58.63;23.50;;;4.70;91.30;;;;;;5046797;28;20197;-69
2021/03/10 05:30:03;;;;;;;65.93;26.97;;;4.80;91.30;;;;;;5040073;28;20441;-70
2021/03/10 05:32:29;;;;;;;63.90;26.20;;;4.80;91.20;;;;;;5038189;28;21135;-69
2021/03/10 05:34:55;;;;;;;59.70;24.43;;;4.70;91.10;;;;;;5049328;28;20489;-69
2021/03/10 05:37:20;;;;;;;60.53;25.17;;;4.70;91.30;;;;;;5034875;28;20193;-70
2021/03/10 05:39:46;;;;;;;58.60;25.40;;;4.70;91.30;;;;;;5031281;28;20189;-69
2021/03/10 05:42:12;;;;;;;60.10;24.03;;;4.80;91.20;;;;;;5042814;28;20665;-70
2021/03/10 05:44:38;;;;;;;65.50;23.70;;;4.80;91.00;;;;;;5019638;28;20212;-68
2021/03/10 05:47:06;;;;;;;62.20;24.90;;;4.80;90.80;;;;;;5046877;28;20676;-69
2021/03/10 05:49:32;;;;;;;54.63;23.27;;;4.80;90.90;;;;;;5050966;28;20201;-69
2021/03/10 05:52:00;;;;;;;60.70;25.20;;;4.80;90.90;;;;;;5031564;28;20529;-69
2021/03/10 05:54:29;;;;;;;66.30;25.90;;;4.80;91.00;;;;;;5030651;28;20818;-70
2021/03/10 05:56:56;;;;;;;60.50;25.93;;;4.80;90.90;;;;;;5029120;28;20872;-71
2021/03/10 05:59:22;;;;;;;56.00;26.57;;;4.80;90.70;;;;;;5050637;28;20935;-70
2021/03/10 06:01:48;;;;;;;59.27;25.80;;;4.80;90.90;;;;;;5050937;28;20423;-69
2021/03/10 06:04:14;;;;;;;64.80;26.40;;;4.90;91.00;;;;;;5050024;28;20208;-69
2021/03/10 06:06:41;;;;;;;55.67;24.90;;;4.90;90.80;;;;;;5050158;28;20419;-68
2021/03/10 06:09:20;;;;;;;55.67;24.67;;;4.90;90.70;;;;;;5050535;28;20271;-69
2021/03/10 06:12:00;;;;;;;55.10;24.73;;;4.90;90.50;;;;;;5032132;28;20420;-69
2021/03/10 06:14:27;;;;;;;71.50;25.07;;;5.00;90.60;;;;;;5043092;28;20456;-69
2021/03/10 06:17:05;;;;;;;53.93;25.33;;;5.00;90.60;;;;;;5031263;28;20424;-69
2021/03/10 06:19:42;;;;;;;59.53;25.53;;;5.00;90.50;;;;;;5032194;28;20468;-69
2021/03/10 06:22:08;;;;;;;65.83;26.23;;;5.00;90.30;;;;;;5031955;28;20530;-68
2021/03/10 06:24:34;;;;;;;57.70;26.00;;;5.10;90.30;;;;;;5030130;28;21002;-69
2021/03/10 06:27:00;;;;;;;58.37;24.20;;;5.10;90.10;;;;;;5031368;28;20428;-69
2021/03/10 06:29:25;;;;;;;59.77;25.10;;;5.10;90.10;;;;;;5031439;28;20247;-70
2021/03/10 06:32:07;;;;;;;54.07;23.87;;;5.10;90.10;;;;;;5032128;28;20259;-70
2021/03/10 06:34:43;;;;;;;56.30;24.10;;;5.10;90.00;;;;;;5029548;28;20197;-69
2021/03/10 06:37:23;;;;;;;56.07;23.73;;;5.10;90.00;;;;;;5028956;28;20442;-70
2021/03/10 06:39:48;;;;;;;61.37;26.53;;;5.10;90.00;;;;;;5030358;28;20438;-70
2021/03/10 06:42:17;;;;;;;63.63;25.53;;;5.10;90.10;;;;;;5030447;28;20460;-69
2021/03/10 06:44:50;;;;;;;57.53;24.87;;;5.10;90.20;;;;;;5029967;28;20586;-69
2021/03/10 06:47:16;;;;;;;57.97;23.50;;;5.10;90.10;;;;;;5044237;28;20434;-70
2021/03/10 06:49:53;;;;;;;58.27;24.63;;;5.10;90.10;;;;;;5040711;28;20451;-69
2021/03/10 06:52:19;;;;;;;68.43;26.43;;;5.10;90.00;;;;;;5038327;28;20204;-69
2021/03/10 06:54:55;;;;;;;62.60;26.30;;;5.10;90.20;;;;;;5040196;28;20438;-70
2021/03/10 06:57:21;;;;;;;59.20;25.10;;;5.10;90.20;;;;;;5023950;28;20428;-68
2021/03/10 06:59:55;;;;;;;64.20;25.83;;;5.10;90.20;;;;;;5032622;28;20973;-69
2021/03/10 07:02:28;;;;;;;60.40;23.70;;;5.20;90.00;;;;;;5042310;28;20446;-69
2021/03/10 07:04:59;;;;;;;56.10;23.23;;;5.20;89.70;;;;;;5037836;28;20491;-69
2021/03/10 07:07:29;;;;;;;57.90;23.90;;;5.20;90.00;;;;;;5043677;28;20918;-70
2021/03/10 07:09:56;;;;;;;60.03;24.13;;;5.20;90.00;;;;;;5046131;28;20423;-72
2021/03/10 07:12:25;;;;;;;57.50;23.60;;;5.20;89.70;;;;;;5048520;28;20473;-71
2021/03/10 07:14:52;;;;;;;60.27;25.90;;;5.30;90.00;;;;;;5043716;28;20434;-72
2021/03/10 07:17:23;;;;;;;54.03;24.10;;;5.30;89.60;;;;;;5042043;28;20455;-72
2021/03/10 07:19:49;;;;;;;54.47;23.80;;;5.40;89.50;;;;;;5041889;28;20523;-73
2021/03/10 07:22:21;;;;;;;55.97;23.20;;;5.40;89.30;;;;;;5040830;28;20443;-74
2021/03/10 07:24:59;;;;;;;59.30;24.77;;;5.50;89.20;;;;;;5030295;28;20524;-74
2021/03/10 07:27:26;;;;;;;57.97;24.63;;;5.60;88.70;;;;;;5031229;28;20515;-72
2021/03/10 07:29:59;;;;;;;54.70;24.57;;;5.80;88.60;;;;;;5041773;28;20502;-74
2021/03/10 07:32:26;;;;;;;59.03;24.07;;;5.80;87.60;;;;;;5043179;28;20458;-73
2021/03/10 07:35:05;;;;;;;58.97;24.57;;;5.80;87.40;;;;;;5038177;28;20505;-73
2021/03/10 07:37:32;;;;;;;57.93;24.23;;;5.80;87.30;;;;;;5035807;28;20426;-74
2021/03/10 07:40:11;;;;;;;59.97;23.90;;;5.90;87.10;;;;;;5049819;28;20418;-73
2021/03/10 07:42:52;;;;;;;56.07;23.33;;;5.90;86.90;;;;;;5009693;28;20429;-70
2021/03/10 07:45:18;;;;;;;57.70;23.43;;;5.90;86.60;;;;;;5022535;28;20471;-70
2021/03/10 07:47:55;;;;;;;62.93;25.90;;;5.80;86.60;;;;;;5041133;28;20927;-70
2021/03/10 07:50:23;;;;;;;60.97;24.33;;;5.80;86.90;;;;;;5037505;28;20457;-70
2021/03/10 07:52:53;;;;;;;57.60;23.83;;;5.80;87.30;;;;;;5038742;28;20439;-69
2021/03/10 07:55:20;;;;;;;57.17;24.90;;;5.90;86.90;;;;;;5033915;28;20511;-71
2021/03/10 07:57:53;;;;;;;63.43;26.13;;;6.00;86.60;;;;;;5034819;28;20424;-70
2021/03/10 08:00:20;;;;;;;57.87;25.03;;;6.10;86.20;;;;;;5041830;28;20435;-70
2021/03/10 08:02:48;;;;;;;56.17;23.40;;;6.00;85.90;;;;;;5041266;28;20447;-69
2021/03/10 08:05:23;;;;;;;65.00;25.60;;;6.00;86.20;;;;;;5030494;28;20467;-70
2021/03/10 08:07:49;;;;;;;60.97;24.33;;;6.00;85.90;;;;;;5031093;28;20437;-69
2021/03/10 08:10:27;;;;;;;65.43;25.23;;;6.10;85.90;;;;;;5047481;28;20420;-72
2021/03/10 08:12:53;;;;;;;56.30;23.20;;;6.10;85.60;;;;;;5049762;28;20880;-71
2021/03/10 08:15:21;;;;;;;62.87;24.83;;;6.10;85.50;;;;;;5045842;28;20431;-70
2021/03/10 08:17:47;;;;;;;61.70;24.83;;;6.10;85.60;;;;;;5047504;28;20651;-72
2021/03/10 08:20:13;;;;;;;59.13;23.60;;;6.20;84.70;;;;;;5040647;28;20426;-72
2021/03/10 08:22:39;;;;;;;57.67;25.27;;;6.20;84.40;;;;;;5039772;28;20454;-70
2021/03/10 08:25:06;;;;;;;57.90;23.80;;;6.40;84.30;;;;;;5043030;28;20487;-70
2021/03/10 08:27:32;;;;;;;59.33;26.00;;;6.60;83.70;;;;;;5048597;28;20426;-69
2021/03/10 08:29:58;;;;;;;54.33;23.07;;;6.60;83.30;;;;;;5042563;28;20442;-70
2021/03/10 08:32:27;;;;;;;55.70;24.50;;;6.70;83.00;;;;;;5046555;28;20280;-70
2021/03/10 08:34:59;;;;;;;44.90;21.90;;;6.80;82.70;;;;;;5042204;28;20427;-72
2021/03/10 08:37:25;;;;;;;53.93;24.23;;;6.80;81.80;;;;;;5048132;28;20431;-69
2021/03/10 08:39:51;;;;;;;54.67;23.33;;;6.70;82.20;;;;;;5044487;28;20427;-70
2021/03/10 08:42:22;;;;;;;54.23;23.30;;;6.70;82.70;;;;;;5032983;28;20456;-71
2021/03/10 08:44:49;;;;;;;52.90;22.97;;;6.80;82.50;;;;;;5022385;28;20554;-70
2021/03/10 08:47:18;;;;;;;52.13;23.50;;;6.90;81.80;;;;;;5045797;28;20438;-72
2021/03/10 08:49:48;;;;;;;58.73;24.77;;;6.90;81.90;;;;;;5043385;28;20439;-69
2021/03/10 08:52:16;;;;;;;48.53;21.80;;;7.10;81.20;;;;;;5039133;28;20441;-73
2021/03/10 08:54:53;;;;;;;47.03;20.50;;;7.20;81.20;;;;;;5039753;28;20435;-69
2021/03/10 08:57:27;;;;;;;48.70;22.87;;;7.20;81.20;;;;;;5041880;28;20436;-70
2021/03/10 08:59:53;;;;;;;47.77;21.33;;;7.30;80.80;;;;;;5045783;28;20437;-72
2021/03/10 09:02:45;;;;;;;49.87;21.67;;;7.40;80.50;;;;;;5040451;28;20961;-74
2021/03/10 09:05:12;;;;;;;43.77;20.87;;;7.80;79.70;;;;;;5034746;28;20630;-72
2021/03/10 09:07:39;;;;;;;47.73;20.97;;;8.00;78.60;;;;;;5038537;28;20767;-70
2021/03/10 09:10:17;;;;;;;48.67;20.43;;;8.20;76.50;;;;;;5044194;28;20432;-71
2021/03/10 09:12:44;;;;;;;50.63;20.57;;;8.30;76.20;;;;;;5045526;28;20517;-71
2021/03/10 09:15:16;;;;;;;53.80;24.27;;;8.00;76.50;;;;;;5036796;28;20427;-71
2021/03/10 09:17:42;;;;;;;47.87;20.47;;;8.00;76.70;;;;;;5036399;28;20436;-71
2021/03/10 09:20:23;;;;;;;50.90;20.13;;;7.90;77.00;;;;;;5043144;28;20519;-70
2021/03/10 09:22:50;;;;;;;54.93;22.30;;;8.00;76.50;;;;;;5045637;28;20494;-71
2021/03/10 09:25:18;;;;;;;50.67;20.40;;;7.90;77.30;;;;;;5041967;28;20566;-70
2021/03/10 09:27:44;;;;;;;48.73;20.10;;;7.90;77.70;;;;;;5032771;28;20939;-70
2021/03/10 09:30:26;;;;;;;46.30;20.53;;;7.90;77.40;;;;;;5032085;28;20427;-71
2021/03/10 09:32:52;;;;;;;48.53;20.53;;;8.00;77.40;;;;;;5025576;28;20443;-70
2021/03/10 09:35:34;;;;;;;43.53;18.13;;;8.20;76.10;;;;;;5037497;28;20436;-70
2021/03/10 09:38:08;;;;;;;45.97;19.67;;;8.50;75.90;;;;;;5039244;28;20435;-69
2021/03/10 09:40:41;;;;;;;42.20;18.57;;;8.80;72.70;;;;;;5047151;28;20942;-72
2021/03/10 09:43:10;;;;;;;35.63;16.60;;;8.60;72.00;;;;;;5023869;28;20456;-70
2021/03/10 09:45:38;;;;;;;37.17;17.53;;;8.50;70.20;;;;;;5027677;28;21000;-69
2021/03/10 09:48:09;;;;;;;40.90;17.23;;;8.50;69.50;;;;;;5042084;28;20422;-70
2021/03/10 09:50:40;;;;;;;40.37;17.40;;;8.50;68.90;;;;;;5035102;28;20449;-72
2021/03/10 09:53:25;;;;;;;34.27;15.00;;;8.50;69.10;;;;;;5050564;28;20447;-71
2021/03/10 09:56:02;;;;;;;29.30;15.30;;;8.30;68.30;;;;;;5019645;28;20427;-72
2021/03/10 09:58:28;;;;;;;33.83;14.60;;;8.30;68.30;;;;;;5048027;28;20419;-71
2021/03/10 10:00:59;;;;;;;34.90;13.80;;;8.30;66.60;;;;;;5051617;28;20431;-70
2021/03/10 10:03:27;;;;;;;33.10;14.13;;;8.20;66.70;;;;;;5038050;28;20430;-70
2021/03/10 10:06:04;;;;;;;36.97;15.43;;;8.20;66.30;;;;;;5049080;28;20541;-70
2021/03/10 10:08:30;;;;;;;30.20;13.60;;;8.10;66.10;;;;;;5037937;28;20492;-71
2021/03/10 10:10:56;;;;;;;38.00;15.83;;;8.10;66.90;;;;;;5040746;28;20934;-72
2021/03/10 10:13:22;;;;;;;39.03;14.33;;;8.00;67.70;;;;;;5047014;28;20581;-72
2021/03/10 10:15:47;;;;;;;33.50;15.53;;;8.10;68.30;;;;;;5047035;28;20196;-72
2021/03/10 10:18:13;;;;;;;37.60;15.43;;;8.20;68.90;;;;;;5040964;28;20663;-70
2021/03/10 10:20:39;;;;;;;35.70;16.17;;;8.30;68.50;;;;;;5041645;28;20243;-70
2021/03/10 10:23:06;;;;;;;30.80;13.97;;;8.50;67.90;;;;;;5050822;28;20197;-71
2021/03/10 10:25:33;;;;;;;40.53;16.10;;;8.50;67.20;;;;;;5035501;28;20222;-72
2021/03/10 10:27:59;;;;;;;35.80;15.60;;;8.50;66.40;;;;;;5045385;28;20432;-70
2021/03/10 10:30:25;;;;;;;27.80;13.80;;;8.50;65.60;;;;;;5043716;28;20419;-72
2021/03/10 10:32:50;;;;;;;29.13;12.70;;;8.50;65.10;;;;;;5049709;28;20540;-70
2021/03/10 10:35:18;;;;;;;36.07;13.47;;;8.50;63.50;;;;;;5035979;28;20219;-69
2021/03/10 10:37:44;;;;;;;26.37;11.57;;;8.70;64.20;;;;;;5030112;28;20541;-70
2021/03/10 10:40:12;;;;;;;22.30;10.40;;;9.00;62.20;;;;;;5043282;28;20422;-72
2021/03/10 10:42:38;;;;;;;21.03;10.07;;;9.00;58.50;;;;;;5042473;28;20447;-69
2021/03/10 10:45:06;;;;;;;26.43;10.77;;;9.00;58.10;;;;;;5030417;28;20476;-70
2021/03/10 10:47:32;;;;;;;19.50;9.73;;;9.10;58.50;;;;;;5045345;28;20486;-70
2021/03/10 10:50:00;;;;;;;22.40;10.70;;;9.10;57.70;;;;;;5030242;28;20444;-69
2021/03/10 10:52:26;;;;;;;18.47;7.97;;;9.00;57.30;;;;;;5035919;28;20901;-70
2021/03/10 10:54:51;;;;;;;16.40;6.53;;;9.00;55.00;;;;;;5038619;28;20507;-72
2021/03/10 10:57:17;;;;;;;12.33;6.00;;;9.00;54.60;;;;;;5040494;28;20189;-71
2021/03/10 10:59:43;;;;;;;11.97;5.90;;;9.00;52.00;;;;;;5032577;28;20181;-71
2021/03/10 11:02:08;;;;;;;12.43;6.10;;;9.00;52.00;;;;;;5040787;28;20272;-71
2021/03/10 11:04:34;;;;;;;12.23;5.50;;;9.10;52.50;;;;;;5040313;28;20476;-70
2021/03/10 11:07:00;;;;;;;12.00;5.60;;;9.30;52.00;;;;;;5041624;28;20255;-71
2021/03/10 11:09:26;;;;;;;10.83;5.70;;;9.40;52.00;;;;;;5043866;28;20212;-69
2021/03/10 11:11:52;;;;;;;8.80;4.53;;;9.40;51.60;;;;;;5035948;28;20422;-70
2021/03/10 11:14:19;;;;;;;11.30;5.30;;;9.30;50.70;;;;;;5035731;28;20228;-72
2021/03/10 11:16:45;;;;;;;10.60;5.00;;;9.30;50.20;;;;;;5042871;28;20473;-70
2021/03/10 11:19:11;;;;;;;11.17;4.90;;;9.50;50.50;;;;;;5043396;28;20423;-70
2021/03/10 11:21:37;;;;;;;10.97;5.43;;;9.50;49.50;;;;;;5017559;28;20196;-71
2021/03/10 11:24:03;;;;;;;11.27;4.67;;;9.50;50.30;;;;;;5043508;28;20463;-71
2021/03/10 11:26:29;;;;;;;10.97;4.57;;;9.30;49.50;;;;;;5036288;28;20564;-71
2021/03/10 11:28:55;;;;;;;11.20;4.77;;;9.20;49.40;;;;;;5037530;28;20416;-72
2021/03/10 11:31:21;;;;;;;11.57;5.10;;;9.20;49.30;;;;;;5045453;28;20185;-71
2021/03/10 11:33:47;;;;;;;10.57;3.90;;;9.50;49.00;;;;;;5045460;28;20270;-72
2021/03/10 11:36:12;;;;;;;10.27;4.50;;;9.80;48.30;;;;;;5029207;28;20915;-71
2021/03/10 11:38:38;;;;;;;10.23;4.37;;;10.00;47.80;;;;;;5028304;28;20234;-71
2021/03/10 11:41:04;;;;;;;11.60;4.13;;;10.00;47.30;;;;;;5043418;28;20185;-71
2021/03/10 11:43:30;;;;;;;15.30;5.13;;;10.00;47.30;;;;;;5016694;28;20288;-71
2021/03/10 11:45:55;;;;;;;10.83;4.70;;;10.10;47.50;;;;;;5026802;28;20527;-71
2021/03/10 11:48:21;;;;;;;11.07;6.40;;;10.30;47.10;;;;;;5040491;28;20267;-72
2021/03/10 11:50:47;;;;;;;10.83;4.90;;;10.10;47.70;;;;;;5039735;28;20181;-72
2021/03/10 11:53:13;;;;;;;11.40;4.73;;;9.70;48.50;;;;;;5042284;28;20634;-70
2021/03/10 11:55:39;;;;;;;10.67;5.67;;;9.60;48.90;;;;;;5034474;28;20450;-71
2021/03/10 11:58:05;;;;;;;13.50;5.97;;;9.60;49.10;;;;;;5032094;28;20466;-70
2021/03/10 12:00:31;;;;;;;9.90;5.03;;;9.60;48.90;;;;;;5048799;28;20841;-72
2021/03/10 12:02:57;;;;;;;14.63;6.40;;;9.60;48.90;;;;;;5035968;28;20448;-70
2021/03/10 12:05:23;;;;;;;13.47;6.30;;;9.60;49.40;;;;;;5041223;28;20275;-70
2021/03/10 12:07:49;;;;;;;11.30;5.93;;;9.70;49.40;;;;;;5042698;28;20419;-71
2021/03/10 12:10:16;;;;;;;9.90;5.60;;;9.70;49.00;;;;;;5045739;28;20416;-71
2021/03/10 12:12:42;;;;;;;15.33;6.60;;;9.90;48.90;;;;;;5045151;28;20545;-71
2021/03/10 12:15:09;;;;;;;11.17;5.70;;;9.90;48.70;;;;;;5043910;28;20428;-71
2021/03/10 12:17:35;;;;;;;12.53;5.77;;;9.70;48.90;;;;;;5044646;28;20433;-71
2021/03/10 12:20:03;;;;;;;17.33;6.37;;;9.70;49.40;;;;;;5036993;28;20427;-72
2021/03/10 12:22:28;;;;;;;11.97;5.77;;;9.90;49.40;;;;;;5036876;28;20448;-71
2021/03/10 12:24:54;;;;;;;9.53;5.50;;;9.90;47.40;;;;;;5039957;28;20886;-70
2021/03/10 12:27:26;;;;;;;11.40;5.30;;;9.80;47.80;;;;;;5030007;28;20223;-69
2021/03/10 12:30:01;;;;;;;14.20;5.87;;;10.00;48.50;;;;;;5040515;28;20182;-71
2021/03/10 12:32:27;;;;;;;11.00;5.67;;;10.10;47.70;;;;;;5042269;28;20950;-70
2021/03/10 12:34:54;;;;;;;10.07;5.50;;;10.20;47.10;;;;;;5038098;28;20426;-70
2021/03/10 12:37:21;;;;;;;9.43;5.17;;;10.30;46.50;;;;;;5036010;28;20454;-71
2021/03/10 12:39:47;;;;;;;12.57;4.80;;;10.30;47.00;;;;;;5042998;28;20420;-71
2021/03/10 12:42:14;;;;;;;8.67;4.77;;;10.50;45.80;;;;;;5043162;28;20472;-70
2021/03/10 12:44:41;;;;;;;9.30;4.70;;;10.50;45.90;;;;;;5016498;28;20478;-71